Time;durP1;ratioP1;P1;durP2;ratioP2;P2;SDS_P1;SDS_P2;PMS_P1;PMS_P2;Temp;Humidity;BMP_temperature;BMP_pressure;BME280_temperature;BME280_humidity;BME280_pressure;Samples;Min_cycle;Max_cycle;Signal;HPM_P1;HPM_P2
2022/03/03 00:01:38;;;;;;;78.05;38.15;;;1.70;99.90;;;;;;5012180;28;20096;-60
2022/03/03 00:04:05;;;;;;;77.53;38.03;;;1.70;99.90;;;;;;5012257;28;20041;-60
2022/03/03 00:06:31;;;;;;;73.65;37.08;;;1.70;99.90;;;;;;5031258;28;20078;-60
2022/03/03 00:08:56;;;;;;;80.35;40.28;;;1.70;99.90;;;;;;5032025;28;20046;-60
2022/03/03 00:11:22;;;;;;;73.65;36.05;;;1.60;99.90;;;;;;5031786;28;20199;-60
2022/03/03 00:13:48;;;;;;;74.95;36.92;;;1.60;99.90;;;;;;5033745;28;20045;-60
2022/03/03 00:16:14;;;;;;;74.57;37.38;;;1.60;99.90;;;;;;5036265;28;20505;-60
2022/03/03 00:18:39;;;;;;;77.88;39.05;;;1.70;99.90;;;;;;5035935;28;20037;-60
2022/03/03 00:21:05;;;;;;;75.05;37.45;;;1.60;99.90;;;;;;5035846;28;20048;-60
2022/03/03 00:23:32;;;;;;;74.88;37.45;;;1.60;99.90;;;;;;5034609;28;20040;-60
2022/03/03 00:25:58;;;;;;;74.88;37.88;;;1.70;99.90;;;;;;5035897;28;20057;-60
2022/03/03 00:28:24;;;;;;;74.47;37.92;;;1.70;99.90;;;;;;5035872;28;20052;-60
2022/03/03 00:30:50;;;;;;;70.70;37.55;;;1.60;99.90;;;;;;5035831;28;20037;-60
2022/03/03 00:33:15;;;;;;;74.53;38.47;;;1.70;99.90;;;;;;5035710;28;20374;-59
2022/03/03 00:35:41;;;;;;;78.38;38.92;;;1.60;99.90;;;;;;5035708;28;20038;-60
2022/03/03 00:38:09;;;;;;;77.22;39.95;;;1.70;99.90;;;;;;5035932;28;20041;-60
2022/03/03 00:40:34;;;;;;;78.07;38.28;;;1.70;99.90;;;;;;5035517;28;20045;-60
2022/03/03 00:43:00;;;;;;;78.75;38.47;;;1.80;99.90;;;;;;5034267;28;20431;-59
2022/03/03 00:45:26;;;;;;;76.35;37.20;;;1.70;99.90;;;;;;5035665;28;20041;-60
2022/03/03 00:47:51;;;;;;;72.63;38.45;;;1.70;99.90;;;;;;5035458;28;20044;-60
2022/03/03 00:50:17;;;;;;;74.15;37.55;;;1.60;99.90;;;;;;5035374;28;20084;-59
2022/03/03 00:52:43;;;;;;;76.60;37.75;;;1.60;99.90;;;;;;5035195;28;20482;-59
2022/03/03 00:55:09;;;;;;;78.63;39.63;;;1.50;99.90;;;;;;5035206;28;20083;-60
2022/03/03 00:57:35;;;;;;;72.55;36.83;;;1.60;99.90;;;;;;5035188;28;20094;-60
2022/03/03 01:00:02;;;;;;;75.95;38.42;;;1.50;99.90;;;;;;5035112;28;20103;-60
2022/03/03 01:02:28;;;;;;;70.57;37.15;;;1.50;99.90;;;;;;5035480;28;20041;-60
2022/03/03 01:04:54;;;;;;;75.35;37.88;;;1.60;99.90;;;;;;5027974;28;20056;-59
2022/03/03 01:07:19;;;;;;;72.15;36.25;;;1.50;99.90;;;;;;5035420;28;20118;-59
2022/03/03 01:09:45;;;;;;;73.25;38.40;;;1.50;99.90;;;;;;5035073;28;20045;-60
2022/03/03 01:12:11;;;;;;;79.65;39.72;;;1.50;99.90;;;;;;5035051;28;20057;-60
2022/03/03 01:14:36;;;;;;;72.88;37.63;;;1.40;99.90;;;;;;5035118;28;20053;-60
2022/03/03 01:17:02;;;;;;;76.03;38.13;;;1.50;99.90;;;;;;5017600;28;20045;-59
2022/03/03 01:19:30;;;;;;;75.50;36.85;;;1.40;99.90;;;;;;5034678;28;20470;-60
2022/03/03 01:21:56;;;;;;;71.70;36.70;;;1.40;99.90;;;;;;5033803;28;20037;-60
2022/03/03 01:24:21;;;;;;;73.80;36.75;;;1.40;99.90;;;;;;5034565;28;20099;-60
2022/03/03 01:26:47;;;;;;;73.10;37.03;;;1.40;99.90;;;;;;5034787;28;20049;-60
2022/03/03 01:29:13;;;;;;;74.60;39.38;;;1.30;99.90;;;;;;5034628;28;20088;-59
2022/03/03 01:31:39;;;;;;;73.82;37.63;;;1.30;99.90;;;;;;5033532;28;20040;-60
2022/03/03 01:34:06;;;;;;;70.95;36.05;;;1.30;99.90;;;;;;5035007;28;20049;-60
2022/03/03 01:36:33;;;;;;;70.20;35.33;;;1.30;99.90;;;;;;5034458;28;20103;-60
2022/03/03 01:38:59;;;;;;;73.18;36.78;;;1.30;99.90;;;;;;5034383;28;20477;-60
2022/03/03 01:41:25;;;;;;;70.75;36.97;;;1.30;99.90;;;;;;5034707;28;20038;-60
2022/03/03 01:43:50;;;;;;;70.57;36.15;;;1.30;99.90;;;;;;5034726;28;20065;-60
2022/03/03 01:46:16;;;;;;;71.22;36.65;;;1.30;99.90;;;;;;5034325;28;20072;-60
2022/03/03 01:48:43;;;;;;;72.32;37.55;;;1.30;99.90;;;;;;5019859;28;20042;-60
2022/03/03 01:51:09;;;;;;;71.88;35.83;;;1.30;99.90;;;;;;5039186;28;20132;-60
2022/03/03 01:53:35;;;;;;;72.22;37.13;;;1.20;99.90;;;;;;5034260;28;20049;-60
2022/03/03 01:56:02;;;;;;;77.25;37.38;;;1.10;99.90;;;;;;5034110;28;20144;-60
2022/03/03 01:58:27;;;;;;;69.63;36.72;;;1.20;99.90;;;;;;5034110;28;20049;-60
2022/03/03 02:00:53;;;;;;;73.60;36.10;;;1.10;99.90;;;;;;5034229;28;20052;-59
2022/03/03 02:03:19;;;;;;;70.38;35.95;;;1.10;99.90;;;;;;5034093;28;20042;-60
2022/03/03 02:05:45;;;;;;;73.00;37.53;;;1.20;99.90;;;;;;5027112;28;20057;-60
2022/03/03 02:08:13;;;;;;;73.55;35.85;;;1.20;99.90;;;;;;5033905;28;20037;-60
2022/03/03 02:10:39;;;;;;;70.55;34.75;;;1.20;99.90;;;;;;5033915;28;20088;-60
2022/03/03 02:13:06;;;;;;;74.00;36.75;;;1.10;99.90;;;;;;5033909;28;20053;-60
2022/03/03 02:15:32;;;;;;;67.82;35.42;;;1.10;99.90;;;;;;5033760;28;20053;-60
2022/03/03 02:17:57;;;;;;;69.28;37.15;;;1.10;99.90;;;;;;5034063;28;20052;-60
2022/03/03 02:20:28;;;;;;;68.53;36.05;;;1.10;99.90;;;;;;5015892;28;20037;-60
2022/03/03 02:22:56;;;;;;;70.13;36.05;;;1.00;99.90;;;;;;5015991;28;20041;-61
2022/03/03 02:25:22;;;;;;;72.65;37.92;;;1.00;99.90;;;;;;5033528;28;20041;-61
2022/03/03 02:27:48;;;;;;;68.22;34.33;;;1.10;99.90;;;;;;5015759;28;20048;-60
2022/03/03 02:30:16;;;;;;;68.93;37.92;;;1.10;99.90;;;;;;5033377;28;20042;-61
2022/03/03 02:32:42;;;;;;;70.03;34.10;;;1.00;99.90;;;;;;5015734;28;20057;-60
2022/03/03 02:35:09;;;;;;;71.57;34.22;;;1.00;99.90;;;;;;5033629;28;20390;-60
2022/03/03 02:37:37;;;;;;;71.30;35.58;;;1.00;99.90;;;;;;5032645;28;20041;-60
2022/03/03 02:40:05;;;;;;;69.85;36.20;;;1.00;99.90;;;;;;5016282;28;20055;-60
2022/03/03 02:42:31;;;;;;;75.75;35.05;;;1.00;99.90;;;;;;5033236;28;20087;-60
2022/03/03 02:44:57;;;;;;;69.53;35.55;;;1.00;99.90;;;;;;5033219;28;20041;-60
2022/03/03 02:47:22;;;;;;;70.35;36.80;;;0.90;99.90;;;;;;5033570;28;20052;-60
2022/03/03 02:49:48;;;;;;;68.00;34.15;;;0.90;99.90;;;;;;5015658;28;20110;-60
2022/03/03 02:52:14;;;;;;;70.20;35.60;;;0.90;99.90;;;;;;5033368;28;20481;-60
2022/03/03 02:54:40;;;;;;;74.93;37.67;;;0.90;99.90;;;;;;5015235;28;20132;-60
2022/03/03 02:59:51;;;;;;;73.03;35.10;;;0.90;99.90;;;;;;5033168;28;20390;-60
2022/03/03 03:02:17;;;;;;;67.38;34.20;;;0.80;99.90;;;;;;5033182;28;20108;-60
2022/03/03 03:04:43;;;;;;;66.40;35.67;;;0.80;99.90;;;;;;5028603;28;20456;-60
2022/03/03 03:07:09;;;;;;;69.22;34.40;;;0.80;99.90;;;;;;5013480;28;20038;-60
2022/03/03 03:09:34;;;;;;;74.00;36.83;;;0.90;99.90;;;;;;5013363;28;20386;-60
2022/03/03 03:12:00;;;;;;;72.68;36.45;;;0.80;99.90;;;;;;5012855;28;20057;-60
2022/03/03 03:14:26;;;;;;;62.72;34.35;;;0.80;99.90;;;;;;5012936;28;20049;-60
2022/03/03 03:16:52;;;;;;;72.22;34.38;;;0.70;99.90;;;;;;5012802;28;20045;-60
2022/03/03 03:19:17;;;;;;;60.95;32.65;;;0.80;99.90;;;;;;5013018;28;20422;-60
2022/03/03 03:21:43;;;;;;;66.20;35.33;;;0.80;99.90;;;;;;5012901;28;20127;-60
2022/03/03 03:24:09;;;;;;;65.82;35.17;;;0.70;99.90;;;;;;5012846;28;20570;-60
2022/03/03 03:26:34;;;;;;;67.85;35.30;;;0.70;99.90;;;;;;5012819;28;20046;-60
2022/03/03 03:29:00;;;;;;;64.45;34.63;;;0.60;99.90;;;;;;5012912;28;20434;-60
2022/03/03 03:31:27;;;;;;;66.57;34.45;;;0.60;99.90;;;;;;5012755;28;20425;-60
2022/03/03 03:33:53;;;;;;;68.93;34.05;;;0.60;99.90;;;;;;5012963;28;20042;-60
2022/03/03 03:36:19;;;;;;;67.82;34.20;;;0.60;99.90;;;;;;5012952;28;20457;-60
2022/03/03 03:38:45;;;;;;;66.47;34.45;;;0.70;99.90;;;;;;5012676;28;20038;-60
2022/03/03 03:41:10;;;;;;;67.65;34.50;;;0.70;99.90;;;;;;5012699;28;20042;-60
2022/03/03 03:43:36;;;;;;;65.80;34.85;;;0.70;99.90;;;;;;5012637;28;20510;-60
2022/03/03 03:46:03;;;;;;;70.22;36.05;;;0.70;99.90;;;;;;5012622;28;20080;-60
2022/03/03 03:48:28;;;;;;;70.93;38.35;;;0.70;99.90;;;;;;5012666;28;20077;-60
2022/03/03 03:50:54;;;;;;;65.85;33.83;;;0.70;99.90;;;;;;5011417;28;20042;-60
2022/03/03 03:53:20;;;;;;;64.18;34.30;;;0.80;99.90;;;;;;5012368;28;20487;-60
2022/03/03 03:55:45;;;;;;;69.18;35.65;;;0.70;99.90;;;;;;5012247;28;20045;-60
2022/03/03 03:58:12;;;;;;;74.70;36.60;;;0.70;99.90;;;;;;5012602;28;20038;-60
2022/03/03 04:00:38;;;;;;;67.75;33.53;;;0.70;99.90;;;;;;5012500;28;20057;-60
2022/03/03 04:03:03;;;;;;;64.88;34.95;;;0.70;99.90;;;;;;5012553;28;20030;-60
2022/03/03 04:05:29;;;;;;;65.18;34.88;;;0.70;99.90;;;;;;5019233;28;20041;-61
2022/03/03 04:07:55;;;;;;;67.35;35.42;;;0.70;99.90;;;;;;5012579;28;20052;-60
2022/03/03 04:10:20;;;;;;;69.03;36.00;;;0.70;99.90;;;;;;5012130;28;20052;-60
2022/03/03 04:12:46;;;;;;;69.30;36.90;;;0.70;99.90;;;;;;5012133;28;20060;-60
2022/03/03 04:15:12;;;;;;;71.03;35.13;;;0.60;99.90;;;;;;5012060;28;20699;-60
2022/03/03 04:17:38;;;;;;;66.53;37.00;;;0.60;99.90;;;;;;4994746;28;20411;-60
2022/03/03 04:20:06;;;;;;;68.05;34.70;;;0.70;99.90;;;;;;5017617;28;20077;-60
2022/03/03 04:22:32;;;;;;;64.93;34.55;;;0.60;99.90;;;;;;5014703;28;20112;-60
2022/03/03 04:24:58;;;;;;;64.72;34.40;;;0.60;99.90;;;;;;5012143;28;20057;-60
2022/03/03 04:27:23;;;;;;;64.45;34.28;;;0.60;99.90;;;;;;5012134;28;20042;-60
2022/03/03 04:29:49;;;;;;;61.65;34.25;;;0.60;99.90;;;;;;5010900;28;20046;-60
2022/03/03 04:32:15;;;;;;;62.95;33.25;;;0.50;99.90;;;;;;5012296;28;20046;-60
2022/03/03 04:34:42;;;;;;;62.88;33.03;;;0.60;99.90;;;;;;5012198;28;20049;-60
2022/03/03 04:37:08;;;;;;;63.05;34.55;;;0.50;99.90;;;;;;5012199;28;20041;-60
2022/03/03 04:39:34;;;;;;;63.25;33.80;;;0.50;99.90;;;;;;5010690;28;20046;-60
2022/03/03 04:41:59;;;;;;;62.33;33.15;;;0.60;99.90;;;;;;5012186;28;20045;-60
2022/03/03 04:44:26;;;;;;;63.00;35.50;;;0.50;99.90;;;;;;5011941;28;20038;-60
2022/03/03 04:46:52;;;;;;;65.53;33.53;;;0.60;99.90;;;;;;5011934;28;20089;-61
2022/03/03 04:49:18;;;;;;;62.90;32.58;;;0.50;99.90;;;;;;5012039;28;20117;-60
2022/03/03 04:51:44;;;;;;;61.90;34.15;;;0.60;99.90;;;;;;5012174;28;20113;-61
2022/03/03 04:54:10;;;;;;;60.13;32.03;;;0.50;99.90;;;;;;5011825;28;20076;-60
2022/03/03 04:56:37;;;;;;;65.50;32.85;;;0.50;99.90;;;;;;5011887;28;20049;-60
2022/03/03 04:59:04;;;;;;;63.28;33.08;;;0.50;99.90;;;;;;5012331;28;20109;-60
2022/03/03 05:01:29;;;;;;;56.47;31.88;;;0.50;99.90;;;;;;5015496;28;20375;-60
2022/03/03 05:03:55;;;;;;;62.38;33.25;;;0.50;99.90;;;;;;5020385;28;20087;-60
2022/03/03 05:06:21;;;;;;;59.47;33.15;;;0.50;99.90;;;;;;5017442;28;20042;-60
2022/03/03 05:08:46;;;;;;;58.45;31.23;;;0.50;99.90;;;;;;5015522;28;20042;-61
2022/03/03 05:11:12;;;;;;;56.03;31.98;;;0.40;99.90;;;;;;4997612;28;20050;-60
2022/03/03 05:13:38;;;;;;;63.05;32.97;;;0.40;99.90;;;;;;5013610;28;20061;-60
2022/03/03 05:16:04;;;;;;;65.63;34.15;;;0.40;99.90;;;;;;5015380;28;20080;-60
2022/03/03 05:18:30;;;;;;;64.38;34.38;;;0.50;99.90;;;;;;5015263;28;20077;-60
2022/03/03 05:20:56;;;;;;;64.70;33.88;;;0.40;99.90;;;;;;5015265;28;20096;-60
2022/03/03 05:23:23;;;;;;;61.38;32.67;;;0.40;99.90;;;;;;5015227;28;20128;-60
2022/03/03 05:25:48;;;;;;;61.75;32.55;;;0.40;99.90;;;;;;5015091;28;20096;-60
2022/03/03 05:28:14;;;;;;;64.05;34.28;;;0.40;99.90;;;;;;5014990;28;20054;-60
2022/03/03 05:30:40;;;;;;;60.88;33.75;;;0.40;99.90;;;;;;5015158;28;20044;-60
2022/03/03 05:33:06;;;;;;;61.70;31.85;;;0.30;99.90;;;;;;5014955;28;20042;-61
2022/03/03 05:35:31;;;;;;;61.70;32.65;;;0.40;99.90;;;;;;5015140;28;20529;-60
2022/03/03 05:37:57;;;;;;;59.67;33.45;;;0.40;99.90;;;;;;5014786;28;20033;-62
2022/03/03 05:40:23;;;;;;;61.63;31.00;;;0.40;99.90;;;;;;5014602;28;20045;-60
2022/03/03 05:42:48;;;;;;;59.47;31.05;;;0.30;99.90;;;;;;5014751;28;20044;-60
2022/03/03 05:45:14;;;;;;;59.85;31.02;;;0.30;99.90;;;;;;5013453;28;20454;-60
2022/03/03 05:47:41;;;;;;;64.55;32.97;;;0.30;99.90;;;;;;5014802;28;20042;-60
2022/03/03 05:50:09;;;;;;;56.75;31.05;;;0.30;99.90;;;;;;5014622;28;20076;-60
2022/03/03 05:52:34;;;;;;;60.75;31.70;;;0.20;99.90;;;;;;5014893;28;20045;-60
2022/03/03 05:55:00;;;;;;;63.75;33.22;;;0.20;99.90;;;;;;5014594;28;20376;-60
2022/03/03 05:57:34;;;;;;;60.55;32.45;;;0.20;99.90;;;;;;4996880;28;20054;-60
2022/03/03 06:00:06;;;;;;;57.05;32.33;;;0.20;99.90;;;;;;4997044;28;20045;-60
2022/03/03 06:02:32;;;;;;;56.30;31.45;;;0.20;99.90;;;;;;5014221;28;20041;-60
2022/03/03 06:04:58;;;;;;;67.32;33.97;;;0.30;99.90;;;;;;5003764;28;20381;-61
2022/03/03 06:07:28;;;;;;;63.50;32.40;;;0.20;99.90;;;;;;5014108;28;20050;-60
2022/03/03 06:10:00;;;;;;;57.22;33.35;;;0.20;99.90;;;;;;5014304;28;20041;-60
2022/03/03 06:12:38;;;;;;;63.65;34.03;;;0.20;99.90;;;;;;5013123;28;20104;-60
2022/03/03 06:15:06;;;;;;;65.97;34.85;;;0.10;99.90;;;;;;5013119;28;20053;-60
2022/03/03 06:17:34;;;;;;;61.17;32.47;;;0.20;99.90;;;;;;5012103;28;20056;-61
2022/03/03 06:20:01;;;;;;;64.20;34.05;;;0.20;99.90;;;;;;5012882;28;20060;-60
2022/03/03 06:22:27;;;;;;;63.92;33.28;;;0.20;99.90;;;;;;5013069;28;20034;-61
2022/03/03 06:24:53;;;;;;;60.90;33.90;;;0.10;99.90;;;;;;5012959;28;20089;-60
2022/03/03 06:27:19;;;;;;;60.25;32.90;;;0.10;99.90;;;;;;5013004;28;20429;-61
2022/03/03 06:29:45;;;;;;;63.80;33.15;;;0.20;99.90;;;;;;5013091;28;20046;-60
2022/03/03 06:32:11;;;;;;;59.75;32.08;;;0.10;99.90;;;;;;5012088;28;20045;-61
2022/03/03 06:34:38;;;;;;;64.05;35.13;;;0.10;99.90;;;;;;5012835;28;20053;-61
2022/03/03 06:37:04;;;;;;;62.08;33.10;;;0.20;99.90;;;;;;5012830;28;20129;-61
2022/03/03 06:39:30;;;;;;;64.72;34.22;;;0.10;99.90;;;;;;5012902;28;20053;-61
2022/03/03 06:41:56;;;;;;;60.95;34.53;;;0.20;99.90;;;;;;5012789;28;20390;-60
2022/03/03 06:44:21;;;;;;;62.35;33.35;;;0.10;99.90;;;;;;5012661;28;20115;-61
2022/03/03 06:46:47;;;;;;;60.42;32.33;;;0.20;99.90;;;;;;5012586;28;20087;-61
2022/03/03 06:49:13;;;;;;;60.65;34.22;;;0.20;99.90;;;;;;5015966;28;20042;-60
2022/03/03 06:51:41;;;;;;;63.15;34.33;;;0.20;99.90;;;;;;4998004;28;20683;-60
2022/03/03 06:54:13;;;;;;;66.43;34.55;;;0.20;99.90;;;;;;5011516;28;20033;-60
2022/03/03 06:56:50;;;;;;;60.10;31.92;;;0.30;99.90;;;;;;5011799;28;20038;-60
2022/03/03 06:59:21;;;;;;;58.20;32.42;;;0.40;99.90;;;;;;5012091;28;20123;-60
2022/03/03 07:01:48;;;;;;;62.90;32.53;;;0.30;99.90;;;;;;5012053;28;20038;-60
2022/03/03 07:04:16;;;;;;;61.67;33.22;;;0.40;99.90;;;;;;5018827;28;20045;-61
2022/03/03 07:06:43;;;;;;;61.05;33.00;;;0.40;99.90;;;;;;5011639;28;20383;-60
2022/03/03 07:09:09;;;;;;;61.72;33.47;;;0.40;99.90;;;;;;5011840;28;20442;-60
2022/03/03 07:11:38;;;;;;;64.20;35.58;;;0.50;99.90;;;;;;5011777;28;20081;-60
2022/03/03 07:14:04;;;;;;;59.55;32.13;;;0.50;99.90;;;;;;4973595;28;1101481;-60
2022/03/03 07:16:35;;;;;;;63.47;35.05;;;0.50;99.90;;;;;;5012507;28;20478;-61
2022/03/03 07:19:04;;;;;;;59.90;33.33;;;0.60;99.90;;;;;;5012376;28;20130;-60
2022/03/03 07:21:55;;;;;;;58.90;32.60;;;0.60;99.90;;;;;;5012134;28;20297;-60
2022/03/03 07:24:34;;;;;;;63.72;34.70;;;0.60;99.90;;;;;;5012295;28;20045;-60
2022/03/03 07:27:04;;;;;;;62.55;33.08;;;0.70;99.90;;;;;;5012001;28;20046;-61
2022/03/03 07:29:32;;;;;;;58.20;32.92;;;0.80;99.90;;;;;;5012230;28;20051;-61
2022/03/03 07:32:05;;;;;;;58.13;32.72;;;0.80;99.90;;;;;;5011921;28;20606;-61
2022/03/03 07:34:42;;;;;;;67.28;35.97;;;0.90;99.90;;;;;;5011920;28;20120;-61
2022/03/03 07:37:14;;;;;;;65.22;34.15;;;0.90;99.90;;;;;;5012314;28;20042;-60
2022/03/03 07:39:43;;;;;;;57.05;32.22;;;1.00;99.90;;;;;;5012109;28;20107;-60
2022/03/03 07:42:18;;;;;;;60.72;34.38;;;1.00;99.90;;;;;;5012203;28;20109;-61
2022/03/03 07:44:45;;;;;;;63.92;35.13;;;1.00;99.90;;;;;;5012127;28;20046;-61
2022/03/03 07:47:11;;;;;;;67.55;34.20;;;1.10;99.90;;;;;;5011423;28;20033;-59
2022/03/03 07:49:40;;;;;;;68.43;35.80;;;1.10;99.90;;;;;;5011781;28;20045;-62
2022/03/03 07:52:07;;;;;;;66.10;33.63;;;1.20;99.90;;;;;;5011656;28;20050;-61
2022/03/03 07:54:33;;;;;;;66.25;35.55;;;1.20;99.90;;;;;;5010828;28;20128;-61
2022/03/03 07:57:01;;;;;;;62.95;34.25;;;1.20;99.90;;;;;;5011760;28;20120;-61
2022/03/03 07:59:31;;;;;;;69.85;35.70;;;1.30;99.90;;;;;;5011661;28;20078;-61
2022/03/03 08:01:58;;;;;;;65.32;34.85;;;1.30;99.90;;;;;;5011582;28;20478;-61
2022/03/03 08:04:28;;;;;;;64.13;34.15;;;1.40;99.90;;;;;;5012996;28;20045;-61
2022/03/03 08:06:58;;;;;;;63.47;34.90;;;1.50;99.90;;;;;;5030914;28;20135;-61
2022/03/03 08:09:26;;;;;;;60.47;33.80;;;1.60;99.90;;;;;;5031148;28;20042;-59
2022/03/03 08:11:53;;;;;;;61.25;33.92;;;1.60;99.90;;;;;;5013304;28;20044;-60
2022/03/03 08:14:20;;;;;;;62.05;33.28;;;1.70;99.90;;;;;;5011061;28;20780;-61
2022/03/03 08:16:46;;;;;;;61.45;33.05;;;1.80;99.90;;;;;;5021918;28;20095;-61
2022/03/03 08:19:14;;;;;;;58.25;32.03;;;1.80;99.90;;;;;;5020374;28;20046;-61
2022/03/03 08:21:44;;;;;;;61.03;33.42;;;1.90;99.90;;;;;;5020355;28;20389;-61
2022/03/03 08:24:14;;;;;;;60.53;34.08;;;1.90;99.90;;;;;;5021577;28;20057;-61
2022/03/03 08:26:41;;;;;;;60.03;33.10;;;2.00;99.90;;;;;;5025538;28;20045;-60
2022/03/03 08:29:07;;;;;;;57.95;30.80;;;2.10;99.90;;;;;;5031169;28;20474;-61
2022/03/03 08:31:40;;;;;;;58.55;32.53;;;2.20;99.90;;;;;;5031300;28;20107;-61
2022/03/03 08:34:33;;;;;;;56.53;31.05;;;2.20;99.90;;;;;;5031380;28;20128;-61
2022/03/03 08:37:02;;;;;;;57.00;31.40;;;2.40;99.90;;;;;;5035030;28;20060;-61
2022/03/03 08:39:29;;;;;;;58.03;31.92;;;2.40;99.90;;;;;;5034652;28;20099;-61
2022/03/03 08:42:00;;;;;;;51.75;29.90;;;2.50;99.90;;;;;;5034732;28;20497;-61
2022/03/03 08:44:29;;;;;;;53.80;30.65;;;2.60;99.90;;;;;;5034809;28;20040;-61
2022/03/03 08:46:57;;;;;;;51.65;30.50;;;2.70;99.90;;;;;;5034616;28;20048;-61
2022/03/03 08:49:30;;;;;;;60.75;32.10;;;2.80;99.90;;;;;;5034093;28;20048;-60
2022/03/03 08:51:56;;;;;;;58.08;32.60;;;2.90;99.90;;;;;;5034800;28;20412;-61
2022/03/03 08:54:22;;;;;;;56.45;30.73;;;3.00;99.90;;;;;;5034570;28;20080;-60
2022/03/03 08:56:47;;;;;;;52.58;29.25;;;3.10;99.90;;;;;;5034475;28;20037;-60
2022/03/03 08:59:13;;;;;;;56.40;30.60;;;3.10;99.90;;;;;;5033114;28;20128;-58
2022/03/03 09:01:39;;;;;;;49.88;29.35;;;3.20;99.90;;;;;;5013200;28;20046;-61
2022/03/03 09:04:06;;;;;;;47.53;28.40;;;3.30;99.90;;;;;;5026603;28;20045;-58
2022/03/03 09:06:32;;;;;;;52.45;29.17;;;3.40;99.90;;;;;;5027441;28;20393;-57
2022/03/03 09:08:58;;;;;;;49.25;27.98;;;3.50;99.90;;;;;;5025573;28;20120;-54
2022/03/03 09:11:24;;;;;;;49.80;26.90;;;3.60;99.90;;;;;;5026644;28;20320;-60
2022/03/03 09:13:50;;;;;;;47.08;26.77;;;3.70;99.90;;;;;;5026859;28;20123;-59
2022/03/03 09:16:17;;;;;;;47.10;26.60;;;3.70;99.90;;;;;;5026662;28;20045;-59
2022/03/03 09:18:47;;;;;;;44.20;26.40;;;3.80;99.90;;;;;;5031269;28;20077;-59
2022/03/03 09:21:13;;;;;;;44.75;27.33;;;3.90;99.90;;;;;;5033592;28;20379;-59
2022/03/03 09:23:39;;;;;;;46.30;26.95;;;4.00;99.90;;;;;;5029017;28;20394;-59
2022/03/03 09:26:04;;;;;;;46.60;26.35;;;4.00;99.90;;;;;;5027294;28;20046;-60
2022/03/03 09:28:30;;;;;;;48.50;27.33;;;4.10;99.90;;;;;;5027698;28;20106;-59
2022/03/03 09:30:56;;;;;;;50.97;28.33;;;4.10;99.90;;;;;;5027691;28;20048;-63
2022/03/03 09:33:23;;;;;;;48.40;28.40;;;4.10;99.90;;;;;;5027896;28;20045;-62
2022/03/03 09:35:49;;;;;;;43.58;27.02;;;4.20;99.90;;;;;;5028795;28;20117;-58
2022/03/03 09:38:15;;;;;;;47.42;28.90;;;4.20;99.90;;;;;;5027016;28;20495;-57
2022/03/03 09:40:42;;;;;;;45.08;26.60;;;4.20;99.90;;;;;;5027509;28;20090;-61
2022/03/03 09:43:08;;;;;;;45.80;27.40;;;4.30;99.90;;;;;;5028431;28;20041;-59
2022/03/03 09:45:36;;;;;;;45.28;27.75;;;4.30;99.90;;;;;;5027629;28;20061;-60
2022/03/03 09:48:05;;;;;;;46.90;27.48;;;4.40;99.90;;;;;;5026486;28;20438;-60
2022/03/03 09:50:32;;;;;;;48.97;28.48;;;4.40;99.90;;;;;;5010486;28;20091;-59
2022/03/03 09:52:58;;;;;;;43.60;27.13;;;4.40;99.90;;;;;;5026188;28;20041;-59
2022/03/03 09:55:24;;;;;;;40.92;25.77;;;4.60;99.90;;;;;;5026562;28;20048;-58
2022/03/03 09:57:51;;;;;;;40.03;23.50;;;4.60;99.90;;;;;;5009386;28;20041;-58
2022/03/03 10:00:17;;;;;;;41.50;24.40;;;4.80;99.90;;;;;;5028025;28;20033;-58
2022/03/03 10:03:13;;;;;;;36.05;23.90;;;4.80;99.90;;;;;;5027968;28;20426;-59
2022/03/03 10:05:47;;;;;;;38.47;22.25;;;4.90;99.90;;;;;;5026824;28;20406;-58
2022/03/03 10:08:16;;;;;;;34.03;22.30;;;5.10;99.90;;;;;;5026252;28;20045;-59
2022/03/03 10:10:45;;;;;;;36.47;22.05;;;5.10;99.90;;;;;;5027962;28;20037;-58
2022/03/03 10:13:14;;;;;;;35.42;22.05;;;5.10;99.90;;;;;;5028055;28;20179;-60
2022/03/03 10:15:40;;;;;;;33.33;20.40;;;5.10;99.90;;;;;;5024497;28;20128;-58
2022/03/03 10:18:10;;;;;;;37.72;20.52;;;5.30;99.90;;;;;;5025263;28;20116;-58
2022/03/03 10:20:50;;;;;;;35.95;21.58;;;5.40;99.90;;;;;;5025657;28;20088;-58
2022/03/03 10:23:28;;;;;;;35.13;20.67;;;5.50;99.90;;;;;;5026883;28;20044;-57
2022/03/03 10:25:56;;;;;;;34.17;20.25;;;5.60;99.90;;;;;;5007561;28;20049;-58
2022/03/03 10:28:28;;;;;;;32.88;20.70;;;5.70;99.90;;;;;;5027138;28;20800;-58
2022/03/03 10:31:00;;;;;;;32.88;20.33;;;5.80;99.90;;;;;;5026029;28;20095;-60
2022/03/03 10:33:31;;;;;;;33.43;20.70;;;5.90;99.90;;;;;;5024995;28;20064;-60
2022/03/03 10:36:06;;;;;;;30.23;19.03;;;6.00;99.90;;;;;;5009903;28;20049;-60
2022/03/03 10:38:34;;;;;;;28.35;17.58;;;6.00;99.90;;;;;;5025356;28;20295;-59
2022/03/03 10:41:00;;;;;;;31.83;18.83;;;6.10;99.90;;;;;;5026495;28;20099;-60
2022/03/03 10:43:26;;;;;;;25.95;16.30;;;6.30;99.90;;;;;;5027261;28;20433;-60
2022/03/03 10:45:56;;;;;;;27.05;15.90;;;6.50;99.90;;;;;;5007971;28;20073;-61
2022/03/03 10:48:23;;;;;;;23.48;16.10;;;6.50;99.90;;;;;;5027449;28;20040;-60
2022/03/03 10:50:52;;;;;;;27.25;16.75;;;6.70;99.90;;;;;;5024634;28;20053;-60
2022/03/03 10:53:23;;;;;;;24.83;16.23;;;6.70;99.90;;;;;;5026923;28;20096;-61
2022/03/03 10:55:59;;;;;;;27.23;16.30;;;6.70;99.90;;;;;;5024837;28;20061;-60
2022/03/03 10:58:43;;;;;;;23.67;15.07;;;6.80;99.90;;;;;;5023291;28;20045;-58
2022/03/03 11:01:08;;;;;;;23.88;14.43;;;6.90;99.90;;;;;;5024098;28;20440;-57
2022/03/03 11:03:35;;;;;;;25.55;15.05;;;6.90;99.90;;;;;;5024158;28;20037;-58
2022/03/03 11:06:03;;;;;;;25.05;15.45;;;7.00;99.90;;;;;;5025907;28;20391;-59
2022/03/03 11:08:29;;;;;;;23.50;15.05;;;7.00;99.90;;;;;;5027585;28;20056;-60
2022/03/03 11:10:55;;;;;;;24.55;16.15;;;7.00;99.90;;;;;;5027195;28;20127;-60
2022/03/03 11:13:22;;;;;;;24.85;16.80;;;7.10;99.90;;;;;;5025115;28;20042;-60
2022/03/03 11:15:49;;;;;;;27.42;16.10;;;7.20;99.90;;;;;;5008377;28;20049;-58
2022/03/03 11:18:18;;;;;;;25.70;15.32;;;7.30;99.90;;;;;;5008825;28;20046;-58
2022/03/03 11:20:48;;;;;;;28.25;18.50;;;7.30;99.90;;;;;;5025414;28;20045;-59
2022/03/03 11:23:14;;;;;;;26.73;17.20;;;7.40;99.90;;;;;;5024942;28;20045;-57
2022/03/03 11:25:43;;;;;;;25.33;16.27;;;7.40;99.90;;;;;;5026314;28;20060;-55
2022/03/03 11:28:14;;;;;;;27.65;18.02;;;7.50;99.90;;;;;;5026453;28;20026;-56
2022/03/03 11:30:45;;;;;;;27.70;18.80;;;7.40;99.90;;;;;;5026014;28;20486;-59
2022/03/03 11:33:27;;;;;;;27.33;17.45;;;7.40;99.90;;;;;;5026111;28;20116;-58
2022/03/03 11:35:59;;;;;;;27.83;17.30;;;7.40;99.90;;;;;;5008285;28;20037;-58
2022/03/03 11:38:44;;;;;;;29.98;19.55;;;7.50;99.90;;;;;;5026842;28;20752;-59
2022/03/03 11:41:10;;;;;;;31.08;18.67;;;7.50;99.90;;;;;;5026210;28;20041;-59
2022/03/03 11:43:46;;;;;;;29.40;19.20;;;7.60;99.90;;;;;;5026003;28;20397;-58
2022/03/03 11:46:12;;;;;;;26.92;17.98;;;7.60;99.90;;;;;;5026264;28;20045;-59
2022/03/03 11:48:39;;;;;;;31.05;19.70;;;7.60;99.90;;;;;;5026383;28;20084;-58
2022/03/03 11:51:32;;;;;;;27.80;18.27;;;7.70;99.90;;;;;;5027681;28;20484;-58
2022/03/03 11:54:09;;;;;;;26.42;16.80;;;7.60;99.90;;;;;;5026246;28;20044;-58
2022/03/03 11:57:03;;;;;;;29.20;18.95;;;7.70;99.90;;;;;;5024457;28;20045;-59
2022/03/03 11:59:47;;;;;;;33.90;21.23;;;7.80;99.90;;;;;;5026171;28;20041;-58
2022/03/03 12:02:19;;;;;;;31.50;21.40;;;7.80;99.90;;;;;;5025862;28;20041;-58
2022/03/03 12:04:45;;;;;;;;;;;7.90;99.90;;;;;;5026478;28;20152;-59
2022/03/03 12:07:30;;;;;;;34.55;21.70;;;7.90;99.90;;;;;;5026422;28;20384;-59
2022/03/03 12:09:56;;;;;;;36.38;22.63;;;7.90;99.90;;;;;;5024678;28;20045;-60
2022/03/03 12:12:27;;;;;;;31.63;20.00;;;7.90;99.90;;;;;;5026301;28;20061;-60
2022/03/03 12:14:58;;;;;;;32.38;20.20;;;8.00;99.90;;;;;;5008068;28;20097;-60
2022/03/03 12:17:42;;;;;;;31.00;20.63;;;8.10;99.90;;;;;;5026338;28;20526;-60
2022/03/03 12:20:34;;;;;;;30.52;21.10;;;8.10;99.90;;;;;;5025506;28;20199;-62
2022/03/03 12:23:12;;;;;;;31.27;20.20;;;8.20;99.90;;;;;;5026675;28;20034;-59
2022/03/03 12:25:58;;;;;;;29.80;19.77;;;8.10;99.90;;;;;;5025288;28;20045;-59
2022/03/03 12:28:47;;;;;;;30.08;18.13;;;8.20;99.90;;;;;;5027180;28;20040;-60
2022/03/03 12:31:29;;;;;;;28.67;18.30;;;8.20;99.90;;;;;;5009360;28;20037;-60
2022/03/03 12:34:06;;;;;;;28.80;17.85;;;8.30;99.90;;;;;;5026199;28;20084;-60
2022/03/03 12:36:34;;;;;;;28.15;17.17;;;8.30;99.90;;;;;;5025344;28;20038;-61
2022/03/03 12:39:00;;;;;;;25.48;17.35;;;8.40;99.90;;;;;;5024521;28;20104;-60
2022/03/03 12:41:31;;;;;;;25.45;15.95;;;8.50;99.90;;;;;;5025266;28;20489;-60
2022/03/03 12:44:12;;;;;;;25.67;16.65;;;8.60;99.90;;;;;;5024862;28;20033;-59
2022/03/03 12:46:39;;;;;;;26.10;16.60;;;8.60;99.90;;;;;;5025536;28;20120;-60